Greenhithe, United Kingdom
Current Conditions -  °F | °C
As of 12:50 PM on Saturday 22 Nov 2014 (Local Time) from EGLC Reporting Station
Overcast Overcast  
Wind Chill: 14°   Ceiling: 3000
Heat Index: 14°   Visibility: 6mi
Dew Point: 13°   Wind: 3mph
Humidity: 94%   Direction: NA
Pressure: 29.91"   Gusts: NA
Location:  51.45°N, 0.28°E
Report Text: EGLC 221250Z AUTO VRB03KT 9999 OVC030/// 14/13 Q1013
Loading
Personal Weather Stations






























Interactive Weather Map New forecast layout! Learn more

10-Day Weather Forecast

Advertisements
Track Severe Weather on mobile